A80 TRACON Summary / KATL TAF
ATL TRACON Summary:
Expect LIFR/IFR cigs this morning until 15z, then MVFR until early afternoon. Shower activity should diminish through the morning, then ramp up again after 18z. Thunderstorm potential remains low, but cannot be completely ruled out. Surface winds will be from the east northeast to east at 5-8kts. Outside of convection, no significant flight hazards expected in the TRACON airspace.

Updated:8/01/2014 6:45 AM
ATL Terminal Aerodrome Forecast:

FTUS80 KATL 011139
KATL 011136Z 0112/0218 06007KT P6SM VCSH OVC007
     FM011500 04006KT P6SM VCSH BKN012
     FM011800 05007KT P6SM VCSH SCT025 BKN035
      TEMPO 0119/0123 6SM -SHRA BR BKN025
     FM012300 07007KT P6SM VCSH BKN025
     FM020800 07005KT P6SM OVC008
     FM021500 06006KT P6SM BKN015
ATL TRACON Area Remark:
LIFR/IFR EXPECTED E/W UNTIL 15Z.
Convective Gate Forecast / Collaborative Convective Forecast Product / Vertical Wind Profile
Convective Gate Forecast
AIRMETs & SIGMETS/ Southeast Radar loop / Satellite Image (click on image to enlarge)

Southeast Radar Loop

 



USA.gov is the U.S. government's official web portal to all federal, state and local government web resources and services.